createdAt,value
2018-01-15T00:01:59.650Z,0.80
2018-01-15T00:04:27.950Z,0.80
2018-01-15T00:06:55.452Z,0.80
2018-01-15T00:09:22.992Z,0.80
2018-01-15T00:11:50.533Z,0.80
2018-01-15T00:14:18.052Z,0.80
2018-01-15T00:16:46.360Z,0.80
2018-01-15T00:19:13.870Z,0.70
2018-01-15T00:21:41.429Z,0.80
2018-01-15T00:24:09.714Z,0.80
2018-01-15T00:26:37.990Z,0.90
2018-01-15T00:29:06.299Z,0.90
2018-01-15T00:31:33.841Z,0.90
2018-01-15T00:34:01.389Z,0.90
2018-01-15T00:36:28.914Z,1.00
2018-01-15T00:38:56.427Z,1.00
2018-01-15T00:41:23.974Z,1.00
2018-01-15T00:43:51.477Z,0.90
2018-01-15T00:46:18.977Z,0.90
2018-01-15T00:48:46.537Z,0.90
2018-01-15T00:51:14.073Z,0.90
2018-01-15T00:53:42.349Z,0.80
2018-01-15T00:56:09.894Z,0.80
2018-01-15T00:58:37.410Z,0.80
2018-01-15T01:01:04.949Z,0.80
2018-01-15T01:03:32.453Z,0.70
2018-01-15T01:06:00.026Z,0.70
2018-01-15T01:08:27.545Z,0.70
2018-01-15T01:10:55.092Z,0.70
2018-01-15T01:13:22.603Z,0.80
2018-01-15T01:15:50.145Z,0.80
2018-01-15T01:18:17.652Z,0.80
2018-01-15T01:20:45.963Z,0.80
2018-01-15T01:23:13.469Z,0.80
2018-01-15T01:25:41.029Z,0.90
2018-01-15T01:28:08.554Z,0.90
2018-01-15T01:30:36.065Z,0.90
2018-01-15T01:33:03.591Z,0.90
2018-01-15T01:35:31.126Z,0.90
2018-01-15T01:37:58.673Z,0.90
2018-01-15T01:40:26.947Z,0.90
2018-01-15T01:42:55.254Z,0.90
2018-01-15T01:45:22.762Z,0.80
2018-01-15T01:47:50.306Z,0.90
2018-01-15T01:50:17.840Z,0.80
2018-01-15T01:52:45.345Z,0.80
2018-01-15T01:55:13.671Z,0.70
2018-01-15T01:57:41.181Z,0.70
2018-01-15T02:00:09.469Z,0.60
2018-01-15T02:02:37.781Z,0.60
2018-01-15T02:05:05.288Z,0.60
2018-01-15T02:07:33.561Z,0.60
2018-01-15T02:10:01.113Z,0.60
2018-01-15T02:12:28.618Z,0.60
2018-01-15T02:14:56.114Z,0.60
2018-01-15T02:17:23.662Z,0.60
2018-01-15T02:19:51.182Z,0.60
2018-01-15T02:22:18.685Z,0.60
2018-01-15T02:24:46.217Z,0.60
2018-01-15T02:27:13.762Z,0.50
2018-01-15T02:29:41.289Z,0.50
2018-01-15T02:32:08.825Z,0.40
2018-01-15T02:34:36.346Z,0.40
2018-01-15T02:37:03.870Z,0.40
2018-01-15T02:39:31.410Z,0.30
2018-01-15T02:41:59.687Z,0.30
2018-01-15T02:44:28.006Z,0.20
2018-01-15T02:46:55.521Z,0.20
2018-01-15T02:49:23.798Z,0.20
2018-01-15T02:51:52.106Z,0.10
2018-01-15T02:54:19.633Z,0.10
2018-01-15T02:56:47.142Z,0.10
2018-01-15T02:59:14.681Z,0.10
2018-01-15T03:01:42.186Z,0.10
2018-01-15T03:04:09.693Z,0.10
2018-01-15T03:06:37.234Z,0.00
2018-01-15T03:09:04.799Z,0.00
2018-01-15T03:11:32.301Z,0.00
2018-01-15T03:13:59.802Z,0.00
2018-01-15T03:16:27.345Z,0.00
2018-01-15T03:18:55.651Z,-0.10
2018-01-15T03:21:23.209Z,-0.10
2018-01-15T03:23:50.716Z,-0.10
2018-01-15T03:26:18.227Z,-0.10
2018-01-15T03:28:45.761Z,-0.20
2018-01-15T03:31:13.272Z,-0.20
2018-01-15T03:33:40.840Z,-0.20
2018-01-15T03:36:08.586Z,-0.20
2018-01-15T03:38:36.094Z,-0.20
2018-01-15T03:41:03.633Z,-0.20
2018-01-15T03:43:31.909Z,-0.20
2018-01-15T03:46:00.270Z,-0.20
2018-01-15T03:48:27.808Z,-0.20
2018-01-15T03:50:55.344Z,-0.30
2018-01-15T03:53:22.877Z,-0.20
2018-01-15T03:55:50.385Z,-0.30
2018-01-15T03:58:18.697Z,-0.30
2018-01-15T04:00:46.978Z,-0.30
2018-01-15T04:03:14.487Z,-0.30
2018-01-15T04:05:42.019Z,-0.30
2018-01-15T04:08:09.529Z,-0.30
2018-01-15T04:10:37.065Z,-0.30
2018-01-15T04:13:04.573Z,-0.30
2018-01-15T04:15:32.118Z,-0.30
2018-01-15T04:17:59.651Z,-0.30
2018-01-15T04:20:27.172Z,-0.20
2018-01-15T04:22:54.725Z,-0.20
2018-01-15T04:25:22.232Z,-0.20
2018-01-15T04:27:50.506Z,-0.10
2018-01-15T04:30:18.826Z,-0.10
2018-01-15T04:32:46.336Z,-0.10
2018-01-15T04:35:14.617Z,0.00
2018-01-15T04:37:42.924Z,0.00
2018-01-15T04:40:10.426Z,0.00
2018-01-15T04:42:37.983Z,0.00
2018-01-15T04:45:06.380Z,0.10
2018-01-15T04:47:34.184Z,0.10
2018-01-15T04:50:02.757Z,0.20
2018-01-15T04:52:31.023Z,0.20
2018-01-15T04:54:59.818Z,0.30
2018-01-15T04:57:27.438Z,0.30
2018-01-15T04:59:54.994Z,0.30
2018-01-15T05:02:22.741Z,0.40
2018-01-15T05:04:50.376Z,0.40
2018-01-15T05:07:17.886Z,0.40
2018-01-15T05:09:46.157Z,0.50
2018-01-15T05:12:14.460Z,0.50
2018-01-15T05:14:41.964Z,0.50
2018-01-15T05:17:09.474Z,0.50
2018-01-15T05:19:37.824Z,0.60
2018-01-15T05:22:05.325Z,0.60
2018-01-15T05:24:32.846Z,0.60
2018-01-15T05:27:00.380Z,0.60
2018-01-15T05:29:27.894Z,0.60
2018-01-15T05:31:56.179Z,0.60
2018-01-15T05:34:23.828Z,0.60
2018-01-15T05:36:52.102Z,0.50
2018-01-15T05:39:20.382Z,0.50
2018-01-15T05:41:47.971Z,0.50
2018-01-15T05:44:15.467Z,0.60
2018-01-15T05:46:42.975Z,0.50
2018-01-15T05:49:10.508Z,0.50
2018-01-15T05:51:38.782Z,0.40
2018-01-15T05:54:07.066Z,0.40
2018-01-15T05:56:34.612Z,0.40
2018-01-15T05:59:02.886Z,0.40
2018-01-15T06:01:30.390Z,0.40
2018-01-15T06:03:57.925Z,0.30
2018-01-15T06:06:26.206Z,0.30
2018-01-15T06:08:54.487Z,0.20
2018-01-15T06:11:22.778Z,0.20
2018-01-15T06:13:50.272Z,0.20
2018-01-15T06:16:17.778Z,0.20
2018-01-15T06:18:45.303Z,0.20
2018-01-15T06:21:12.812Z,0.10
2018-01-15T06:23:40.322Z,0.10
2018-01-15T06:26:08.613Z,0.00
2018-01-15T06:28:36.898Z,0.00
2018-01-15T06:31:05.204Z,0.00
2018-01-15T06:33:32.719Z,0.00
2018-01-15T06:36:01.010Z,0.00
2018-01-15T06:38:29.298Z,0.10
2018-01-15T06:40:56.817Z,0.10
2018-01-15T06:43:24.339Z,0.10
2018-01-15T06:45:51.962Z,0.10
2018-01-15T06:48:19.483Z,0.10
2018-01-15T06:50:47.003Z,0.10
2018-01-15T06:53:14.524Z,0.10
2018-01-15T06:55:42.798Z,0.10
2018-01-15T06:58:11.103Z,0.10
2018-01-15T07:00:38.610Z,0.10
2018-01-15T07:03:06.120Z,0.10
2018-01-15T07:05:33.640Z,0.10
2018-01-15T07:08:01.913Z,0.20
2018-01-15T07:10:29.466Z,0.20
2018-01-15T07:12:56.972Z,0.40
2018-01-15T07:15:24.482Z,0.50
2018-01-15T07:17:51.991Z,0.60
2018-01-15T07:20:19.522Z,0.70
2018-01-15T07:22:47.794Z,0.80
2018-01-15T07:25:16.068Z,0.90
2018-01-15T07:27:44.398Z,0.90
2018-01-15T07:30:11.909Z,1.00
2018-01-15T07:32:39.418Z,1.00
2018-01-15T07:35:06.949Z,1.00
2018-01-15T07:37:34.451Z,1.00
2018-01-15T07:40:01.971Z,1.00
2018-01-15T07:42:29.495Z,1.10
2018-01-15T07:44:57.007Z,1.10
2018-01-15T07:47:24.537Z,1.10
2018-01-15T07:49:52.165Z,1.10
2018-01-15T07:52:19.692Z,1.10
2018-01-15T07:54:47.204Z,1.10
2018-01-15T07:57:14.785Z,1.10
2018-01-15T07:59:43.070Z,1.00
2018-01-15T08:02:10.593Z,1.00
2018-01-15T08:04:38.124Z,1.00
2018-01-15T08:07:06.396Z,1.00
2018-01-15T08:09:34.666Z,1.00
2018-01-15T08:12:02.975Z,1.00
2018-01-15T08:14:30.486Z,1.10
2018-01-15T08:16:58.783Z,1.10
2018-01-15T08:19:26.308Z,1.10
2018-01-15T08:21:53.818Z,1.10
2018-01-15T08:24:21.353Z,1.20
2018-01-15T08:26:48.868Z,1.20
2018-01-15T08:29:16.412Z,1.20
2018-01-15T08:31:44.696Z,1.30
2018-01-15T08:34:12.201Z,1.30
2018-01-15T08:36:39.746Z,1.30
2018-01-15T08:39:08.026Z,1.40
2018-01-15T08:41:36.302Z,1.50
2018-01-15T08:44:04.613Z,1.50
2018-01-15T08:46:32.126Z,1.50
2018-01-15T08:48:59.648Z,1.60
2018-01-15T08:51:27.954Z,1.70
2018-01-15T08:53:55.474Z,1.70
2018-01-15T08:56:23.770Z,1.90
2018-01-15T08:58:51.283Z,1.90
2018-01-15T09:01:18.811Z,2.00
2018-01-15T09:03:46.437Z,2.20
2018-01-15T09:06:14.714Z,2.50
2018-01-15T09:08:42.230Z,2.50
2018-01-15T09:11:09.762Z,2.60
2018-01-15T09:13:37.284Z,2.80
2018-01-15T09:16:04.810Z,2.90
2018-01-15T09:18:32.318Z,3.00
2018-01-15T09:21:00.608Z,3.20
2018-01-15T09:23:28.137Z,3.20
2018-01-15T09:25:55.653Z,3.30
2018-01-15T09:28:23.164Z,3.30
2018-01-15T09:30:50.689Z,3.40
2018-01-15T09:33:18.964Z,3.40
2018-01-15T09:35:47.230Z,3.40
2018-01-15T09:38:14.799Z,3.40
2018-01-15T09:40:43.095Z,3.50
2018-01-15T09:43:10.627Z,3.40
2018-01-15T09:45:38.912Z,3.50
2018-01-15T09:48:07.187Z,3.50
2018-01-15T09:50:34.813Z,3.50
2018-01-15T09:53:02.332Z,3.50
2018-01-15T09:55:29.869Z,3.50
2018-01-15T09:57:58.164Z,3.60
2018-01-15T10:00:25.667Z,3.60
2018-01-15T10:02:53.540Z,3.60
2018-01-15T10:05:21.834Z,3.70
2018-01-15T10:07:50.104Z,3.70
2018-01-15T10:10:18.373Z,3.70
2018-01-15T10:12:46.669Z,3.70
2018-01-15T10:15:14.180Z,3.70
2018-01-15T10:17:41.686Z,3.80
2018-01-15T10:20:09.222Z,3.80
2018-01-15T10:22:37.502Z,3.80
2018-01-15T10:25:05.905Z,3.90
2018-01-15T10:27:33.423Z,3.80
2018-01-15T10:30:00.978Z,3.90
2018-01-15T10:32:28.611Z,3.90
2018-01-15T10:34:56.121Z,3.90
2018-01-15T10:37:23.631Z,3.90
2018-01-15T10:39:51.166Z,3.90
2018-01-15T10:42:18.681Z,4.00
2018-01-15T10:44:46.952Z,4.00
2018-01-15T10:47:15.251Z,4.00
2018-01-15T10:49:42.766Z,4.00
2018-01-15T10:52:10.296Z,4.00
2018-01-15T10:54:37.830Z,4.00
2018-01-15T10:57:05.344Z,4.00
2018-01-15T10:59:32.862Z,3.90
2018-01-15T11:02:01.171Z,3.80
2018-01-15T11:04:28.688Z,3.80
2018-01-15T11:06:56.192Z,3.80
2018-01-15T11:09:24.490Z,3.80
2018-01-15T11:11:52.086Z,3.70
2018-01-15T11:14:19.526Z,3.70
2018-01-15T11:16:47.096Z,3.70
2018-01-15T11:19:14.603Z,3.70
2018-01-15T11:21:42.874Z,3.70
2018-01-15T11:24:11.166Z,3.70
2018-01-15T11:26:38.686Z,3.70
2018-01-15T11:29:06.200Z,3.80
2018-01-15T11:31:33.731Z,3.80
2018-01-15T11:34:02.001Z,3.80
2018-01-15T11:36:30.275Z,3.90
2018-01-15T11:38:58.579Z,3.90
2018-01-15T11:41:26.102Z,3.90
2018-01-15T11:43:53.693Z,3.90
2018-01-15T11:46:21.259Z,4.00
2018-01-15T11:48:48.783Z,4.00
2018-01-15T11:51:17.057Z,4.10
2018-01-15T11:53:44.699Z,4.10
2018-01-15T11:56:12.214Z,4.10
2018-01-15T11:58:39.734Z,4.10
2018-01-15T12:01:08.022Z,4.20
2018-01-15T12:03:35.530Z,4.20
2018-01-15T12:06:03.029Z,4.20
2018-01-15T12:08:31.334Z,4.30
2018-01-15T12:10:58.845Z,4.30
2018-01-15T12:13:27.115Z,4.30
2018-01-15T12:15:54.655Z,4.30
2018-01-15T12:18:22.278Z,4.40
2018-01-15T12:20:49.749Z,4.40
2018-01-15T12:23:17.250Z,4.40
2018-01-15T12:25:44.796Z,4.40
2018-01-15T12:28:13.102Z,4.50
2018-01-15T12:30:41.381Z,4.60
2018-01-15T12:33:09.694Z,4.60
2018-01-15T12:35:37.214Z,4.60
2018-01-15T12:38:04.758Z,4.70
2018-01-15T12:40:32.272Z,4.70
2018-01-15T12:43:00.460Z,4.80
2018-01-15T12:45:28.072Z,4.90
2018-01-15T12:47:55.608Z,5.00
2018-01-15T12:50:23.117Z,5.00
2018-01-15T12:52:50.653Z,5.00
2018-01-15T12:55:18.971Z,5.40
2018-01-15T12:57:46.482Z,5.40
2018-01-15T13:00:14.757Z,5.80
2018-01-15T13:02:43.058Z,6.00
2018-01-15T13:05:10.569Z,6.00
2018-01-15T13:07:49.818Z,6.20
2018-01-15T13:10:18.090Z,6.20
2018-01-15T13:12:46.366Z,6.00
2018-01-15T13:15:14.712Z,5.80
2018-01-15T13:17:43.011Z,5.70
2018-01-15T13:20:11.298Z,5.60
2018-01-15T13:22:39.602Z,5.50
2018-01-15T13:25:07.162Z,5.50
2018-01-15T13:27:34.681Z,5.50
2018-01-15T13:30:02.998Z,5.30
2018-01-15T13:32:30.520Z,5.30
2018-01-15T13:34:58.853Z,5.20
2018-01-15T13:37:27.131Z,5.20
2018-01-15T13:39:54.637Z,5.20
2018-01-15T13:42:22.185Z,5.20
2018-01-15T13:44:50.459Z,5.20
2018-01-15T13:47:18.735Z,5.20
2018-01-15T13:49:47.042Z,5.20
2018-01-15T13:52:14.545Z,5.20
2018-01-15T13:54:42.073Z,5.10
2018-01-15T13:57:10.350Z,5.10
2018-01-15T13:59:37.893Z,5.10
2018-01-15T14:02:05.429Z,5.00
2018-01-15T14:04:32.944Z,5.00
2018-01-15T14:07:00.515Z,5.00
2018-01-15T14:09:28.038Z,5.00
2018-01-15T14:11:55.546Z,4.90
2018-01-15T14:14:23.850Z,4.80
2018-01-15T14:16:51.365Z,4.80
2018-01-15T14:19:19.680Z,4.70
2018-01-15T14:21:47.187Z,4.70
2018-01-15T14:24:14.744Z,4.70
2018-01-15T14:26:42.254Z,4.70
2018-01-15T14:29:09.827Z,4.60
2018-01-15T14:31:37.329Z,4.60
2018-01-15T14:34:05.608Z,4.60
2018-01-15T14:36:33.901Z,4.60
2018-01-15T14:39:01.466Z,4.60
2018-01-15T14:41:28.983Z,4.60
2018-01-15T14:43:56.492Z,4.50
2018-01-15T14:46:24.044Z,4.50
2018-01-15T14:48:51.547Z,4.50
2018-01-15T14:51:19.059Z,4.50
2018-01-15T14:53:46.607Z,4.40
2018-01-15T14:56:14.124Z,4.40
2018-01-15T14:58:41.688Z,4.40
2018-01-15T15:01:09.202Z,4.30
2018-01-15T15:03:36.753Z,4.30
2018-01-15T15:06:04.275Z,4.30
2018-01-15T15:08:32.554Z,4.20
2018-01-15T15:11:00.862Z,4.20
2018-01-15T15:13:28.451Z,4.20
2018-01-15T15:15:55.956Z,4.10
2018-01-15T15:18:23.466Z,4.10
2018-01-15T15:20:51.013Z,4.10
2018-01-15T15:23:18.545Z,4.10
2018-01-15T15:25:46.077Z,4.10
2018-01-15T15:28:13.661Z,4.10
2018-01-15T15:30:41.197Z,4.10
2018-01-15T15:33:08.742Z,4.10
2018-01-15T15:41:18.713Z,4.10
2018-01-15T15:43:46.970Z,4.10
2018-01-15T15:46:14.467Z,4.10
2018-01-15T15:48:41.982Z,4.10
2018-01-15T15:51:09.479Z,4.10
2018-01-15T15:53:37.011Z,4.10
2018-01-15T18:56:17.733Z,3.90
2018-01-15T18:58:46.005Z,3.90
2018-01-15T19:01:14.268Z,3.90
2018-01-15T19:03:42.590Z,3.90
2018-01-15T19:06:10.087Z,3.90
2018-01-15T19:08:37.585Z,3.90
2018-01-15T19:11:05.165Z,3.80
2018-01-15T19:13:32.661Z,3.80
2018-01-15T19:16:00.170Z,3.80
2018-01-15T19:18:27.688Z,3.80
2018-01-15T19:20:55.960Z,3.80
2018-01-15T19:23:24.255Z,3.80
2018-01-15T19:25:52.580Z,3.80
2018-01-15T19:28:20.072Z,3.70
2018-01-15T19:30:48.378Z,3.80
2018-01-15T19:33:15.962Z,3.80
2018-01-15T19:38:50.316Z,3.80
2018-01-15T19:44:25.448Z,3.90
2018-01-15T19:46:58.748Z,3.90
2018-01-15T19:49:32.152Z,3.90
2018-01-15T19:52:05.588Z,3.90
2018-01-15T19:54:39.547Z,3.90
2018-01-15T19:57:12.689Z,3.90
2018-01-15T19:59:46.788Z,3.90
2018-01-15T20:02:19.872Z,3.90
2018-01-15T20:04:53.948Z,4.00
2018-01-15T20:07:27.229Z,4.00
2018-01-15T20:10:00.468Z,3.90
2018-01-15T20:12:28.737Z,3.90
2018-01-15T20:14:56.998Z,3.90
2018-01-15T20:17:24.725Z,3.80
2018-01-15T20:19:52.258Z,3.80
2018-01-15T20:22:19.791Z,3.80
2018-01-15T20:24:48.230Z,3.80
2018-01-15T20:27:15.719Z,3.80
2018-01-15T20:29:44.023Z,3.80
2018-01-15T20:32:11.599Z,3.80
2018-01-15T20:34:39.138Z,3.90
2018-01-15T20:37:06.632Z,3.90
2018-01-15T20:39:34.218Z,3.90
2018-01-15T20:42:01.767Z,4.00
2018-01-15T20:44:29.613Z,4.00
2018-01-15T20:46:57.135Z,4.00
2018-01-15T20:49:24.674Z,4.00
2018-01-15T20:51:52.973Z,4.10
2018-01-15T20:54:20.549Z,4.00
2018-01-15T20:56:48.123Z,4.10
2018-01-15T20:59:15.671Z,4.10
2018-01-15T21:01:43.237Z,4.10
2018-01-15T21:04:10.799Z,4.10
2018-01-15T21:06:38.297Z,4.00
2018-01-15T21:09:06.617Z,4.00
2018-01-15T21:11:34.136Z,4.00
2018-01-15T21:14:02.424Z,4.00
2018-01-15T21:16:29.969Z,4.00
2018-01-15T21:18:58.324Z,3.90
2018-01-15T21:21:26.648Z,3.90
2018-01-15T21:23:54.159Z,3.90
2018-01-15T21:26:22.508Z,3.90
2018-01-15T21:28:50.045Z,3.90
2018-01-15T21:31:17.563Z,3.90
2018-01-15T21:33:45.824Z,3.90
2018-01-15T21:36:13.491Z,3.90
2018-01-15T21:38:41.747Z,3.90
2018-01-15T21:41:09.243Z,3.90
2018-01-15T21:43:36.786Z,4.00
2018-01-15T21:46:05.980Z,4.00
2018-01-15T21:48:34.244Z,4.00
2018-01-15T21:51:02.073Z,4.00
2018-01-15T21:53:29.595Z,4.00
2018-01-15T21:55:57.123Z,4.00
2018-01-15T21:58:25.393Z,4.00
2018-01-15T22:00:52.928Z,4.00
2018-01-15T22:03:20.462Z,4.00
2018-01-15T22:05:48.012Z,4.00
2018-01-15T22:08:15.549Z,4.00
2018-01-15T22:10:43.812Z,4.00
2018-01-15T22:13:11.335Z,4.00
2018-01-15T22:15:38.918Z,4.10
2018-01-15T22:18:06.467Z,4.10
2018-01-15T22:20:33.981Z,4.10
2018-01-15T22:23:01.548Z,4.10
2018-01-15T22:25:29.047Z,4.10
2018-01-15T22:27:57.324Z,4.10
2018-01-15T22:30:25.612Z,4.10
2018-01-15T22:32:53.859Z,4.10
2018-01-15T22:35:21.386Z,4.10
2018-01-15T22:37:48.942Z,4.10
2018-01-15T22:40:16.466Z,4.10
2018-01-15T22:42:43.963Z,4.10
2018-01-15T22:45:12.248Z,4.10
2018-01-15T22:47:39.751Z,4.10
2018-01-15T22:50:08.046Z,4.10
2018-01-15T22:52:35.545Z,4.10
2018-01-15T22:55:03.049Z,4.10
2018-01-15T22:57:30.575Z,4.10
2018-01-15T22:59:58.061Z,4.10
2018-01-15T23:02:26.348Z,4.10
2018-01-15T23:04:53.839Z,4.10
2018-01-15T23:07:21.340Z,4.10
2018-01-15T23:09:49.635Z,4.20
2018-01-15T23:12:17.166Z,4.20
2018-01-15T23:14:44.665Z,4.20
2018-01-15T23:17:12.192Z,4.20
2018-01-15T23:19:39.691Z,4.20
2018-01-15T23:22:07.180Z,4.20
2018-01-15T23:24:34.723Z,4.20
2018-01-15T23:27:02.216Z,4.20
2018-01-15T23:29:30.481Z,4.20
2018-01-15T23:31:58.812Z,4.20
2018-01-15T23:34:26.308Z,4.20
2018-01-15T23:36:53.815Z,4.20
2018-01-15T23:39:21.330Z,4.20
2018-01-15T23:41:48.836Z,4.30
2018-01-15T23:44:16.385Z,4.30
2018-01-15T23:46:43.889Z,4.30
2018-01-15T23:49:11.390Z,4.30
2018-01-15T23:51:38.921Z,4.30
2018-01-15T23:54:07.783Z,4.30
2018-01-15T23:56:35.277Z,4.30
2018-01-15T23:59:02.772Z,4.30
